Terminal Aerodrome Forecast
Issued by NWS Charleston, WV

Current Version | Previous Version | Text Only | Print | Product List | Glossary Off
Versions: 1 2 3 4 5 6 7 8 9 10 11 12 13 14 15 16 17 18 19

000
FTUS41 KRLX 251500 AAA
TAFPKB
TAF AMD
KPKB 251517Z 2515/2612 VRB03KT P6SM SKC
     FM252200 02003KT P6SM SCT120 BKN250
     FM260300 03004KT P6SM BKN100
     FM260800 03006KT P6SM BKN040=

USA.gov is the U.S. government's official web portal to all federal, state and local government web resources and services.